Rebecca, Georgia
Current Conditions -  °F | °C
As of 10:35 PM on Friday 19 Dec 2014 (Local Time) from KFZG Reporting Station
Overcast Overcast  
Wind Chill: 55°   Ceiling: 10000
Heat Index: 55°   Visibility: 10mi
Dew Point: 39°   Wind: 3mph
Humidity: 56%   Direction: 50°NE
Pressure: 30.14"   Gusts: NA
Location:  31.81°N, 83.49°W
Report Text: KFZG 200335Z AUTO 05003KT 10SM SCT080 OVC100 13/04 A3014 RMK AO2 T01270040
Loading
Personal Weather Stations






























Interactive Weather Map New forecast layout! Learn more

10-Day Weather Forecast

Advertisements
Track Severe Weather on mobile